createdAt,value
2022-11-01T00:02:06.659Z,4.90
2022-11-01T00:04:33.836Z,4.70
2022-11-01T00:07:00.973Z,4.57
2022-11-01T00:09:28.193Z,5.07
2022-11-01T00:11:55.564Z,5.13
2022-11-01T00:14:22.832Z,4.60
2022-11-01T00:16:50.612Z,4.30
2022-11-01T00:19:17.774Z,4.80
2022-11-01T00:21:45.179Z,4.32
2022-11-01T00:24:12.682Z,4.68
2022-11-01T00:26:41.336Z,4.63
2022-11-01T00:29:09.251Z,4.28
2022-11-01T00:31:36.715Z,4.30
2022-11-01T00:34:05.942Z,5.00
2022-11-01T00:36:37.248Z,4.80
2022-11-01T00:39:05.487Z,4.68
2022-11-01T00:41:32.789Z,4.63
2022-11-01T00:44:00.035Z,4.72
2022-11-01T00:46:27.351Z,5.22
2022-11-01T00:48:54.435Z,4.60
2022-11-01T00:51:21.634Z,4.80
2022-11-01T00:53:48.884Z,4.60
2022-11-01T00:56:16.123Z,4.93
2022-11-01T00:58:43.349Z,4.80
2022-11-01T01:01:10.711Z,5.32
2022-11-01T01:03:37.978Z,4.95
2022-11-01T01:06:05.373Z,5.00
2022-11-01T01:08:32.592Z,5.43
2022-11-01T01:10:59.891Z,5.10
2022-11-01T01:13:27.009Z,5.63
2022-11-01T01:15:54.263Z,5.03
2022-11-01T01:18:21.472Z,5.63
2022-11-01T01:20:48.637Z,5.45
2022-11-01T01:23:15.868Z,5.15
2022-11-01T01:25:43.372Z,4.90
2022-11-01T01:28:11.045Z,5.38
2022-11-01T01:30:41.868Z,5.07
2022-11-01T01:33:10.162Z,4.85
2022-11-01T01:35:39.196Z,5.85
2022-11-01T01:38:07.025Z,4.90
2022-11-01T01:40:35.207Z,4.65
2022-11-01T01:43:02.502Z,5.00
2022-11-01T01:45:33.730Z,4.53
2022-11-01T01:48:19.952Z,4.68
2022-11-01T01:50:54.384Z,4.88
2022-11-01T01:53:24.257Z,5.43
2022-11-01T01:55:57.898Z,5.05
2022-11-01T01:58:35.884Z,4.93
2022-11-01T02:01:03.119Z,4.90
2022-11-01T02:03:33.013Z,4.57
2022-11-01T02:06:12.517Z,5.05
2022-11-01T02:08:43.565Z,4.80
2022-11-01T02:11:12.273Z,4.75
2022-11-01T02:13:39.343Z,4.88
2022-11-01T02:16:21.026Z,4.95
2022-11-01T02:19:12.699Z,5.07
2022-11-01T02:22:02.499Z,4.38
2022-11-01T02:24:43.193Z,4.90
2022-11-01T02:27:21.650Z,4.60
2022-11-01T02:29:51.987Z,5.05
2022-11-01T02:32:45.861Z,4.68
2022-11-01T02:35:37.174Z,4.50
2022-11-01T02:38:08.061Z,4.32
2022-11-01T02:40:43.461Z,5.35
2022-11-01T02:43:19.009Z,4.18
2022-11-01T02:45:50.198Z,4.47
2022-11-01T02:48:21.476Z,3.95
2022-11-01T02:50:57.445Z,4.20
2022-11-01T02:53:24.908Z,4.47
2022-11-01T02:55:53.499Z,4.53
2022-11-01T02:58:26.502Z,4.30
2022-11-01T03:00:54.002Z,4.43
2022-11-01T03:03:34.503Z,4.30
2022-11-01T03:06:09.043Z,4.60
2022-11-01T03:08:41.536Z,4.15
2022-11-01T03:11:17.880Z,4.20
2022-11-01T03:14:19.855Z,4.60
2022-11-01T03:17:06.240Z,3.90
2022-11-01T03:19:36.153Z,4.53
2022-11-01T03:22:24.813Z,4.03
2022-11-01T03:25:03.695Z,4.40
2022-11-01T03:27:42.402Z,4.18
2022-11-01T03:30:14.333Z,4.10
2022-11-01T03:32:43.669Z,4.53
2022-11-01T03:35:17.018Z,4.35
2022-11-01T03:37:46.564Z,4.23
2022-11-01T03:40:16.025Z,3.97
2022-11-01T03:42:49.249Z,4.13
2022-11-01T03:47:52.292Z,4.25
2022-11-01T03:50:25.638Z,3.92
2022-11-01T03:52:53.199Z,3.93
2022-11-01T03:55:21.226Z,4.25
2022-11-01T03:58:00.152Z,4.30
2022-11-01T04:00:37.626Z,3.83
2022-11-01T04:03:05.720Z,4.07
2022-11-01T04:05:34.398Z,4.03
2022-11-01T04:08:01.639Z,4.20
2022-11-01T04:10:29.769Z,4.15
2022-11-01T04:12:58.044Z,4.05
2022-11-01T04:15:45.261Z,4.15
2022-11-01T04:23:37.606Z,3.72
2022-11-01T04:26:05.889Z,4.38
2022-11-01T04:28:33.462Z,4.10
2022-11-01T04:31:00.917Z,4.07
2022-11-01T04:33:29.142Z,4.05
2022-11-01T04:35:56.315Z,4.25
2022-11-01T04:38:23.516Z,3.85
2022-11-01T04:40:50.674Z,4.20
2022-11-01T04:43:17.757Z,4.03
2022-11-01T04:45:44.801Z,3.97
2022-11-01T04:48:14.054Z,4.10
2022-11-01T04:50:42.481Z,3.75
2022-11-01T04:53:10.601Z,3.55
2022-11-01T04:55:37.922Z,3.78
2022-11-01T04:58:06.950Z,4.32
2022-11-01T05:00:35.219Z,4.25
2022-11-01T05:03:04.585Z,3.58
2022-11-01T05:05:32.727Z,3.50
2022-11-01T05:08:10.408Z,3.70
2022-11-01T05:10:40.519Z,3.42
2022-11-01T05:13:08.542Z,3.75
2022-11-01T05:15:40.177Z,4.38
2022-11-01T05:18:15.059Z,4.15
2022-11-01T05:20:42.337Z,4.00
2022-11-01T05:23:09.515Z,3.70
2022-11-01T05:25:38.235Z,4.10
2022-11-01T05:28:08.723Z,4.03
2022-11-01T05:30:37.365Z,4.07
2022-11-01T05:33:05.724Z,4.32
2022-11-01T05:35:34.726Z,3.80
2022-11-01T05:38:03.715Z,3.85
2022-11-01T05:40:32.148Z,3.63
2022-11-01T05:42:59.913Z,4.28
2022-11-01T05:45:27.420Z,4.30
2022-11-01T05:47:54.655Z,3.90
2022-11-01T05:50:21.863Z,3.78
2022-11-01T05:52:50.236Z,4.50
2022-11-01T05:55:17.620Z,3.90
2022-11-01T05:57:44.885Z,3.72
2022-11-01T06:00:12.958Z,3.70
2022-11-01T06:02:40.406Z,3.95
2022-11-01T06:05:07.829Z,3.42
2022-11-01T06:07:36.729Z,3.55
2022-11-01T06:10:05.717Z,3.42
2022-11-01T06:12:33.768Z,3.72
2022-11-01T06:15:00.943Z,3.40
2022-11-01T06:17:28.194Z,3.20
2022-11-01T06:19:55.647Z,3.13
2022-11-01T06:22:23.096Z,3.20
2022-11-01T06:24:50.365Z,3.42
2022-11-01T06:27:17.826Z,3.40
2022-11-01T06:29:45.027Z,2.72
2022-11-01T06:32:12.326Z,3.47
2022-11-01T06:34:42.397Z,3.03
2022-11-01T06:37:12.199Z,3.28
2022-11-01T06:39:39.451Z,2.92
2022-11-01T06:42:06.605Z,2.90
2022-11-01T06:44:33.811Z,2.78
2022-11-01T06:47:01.025Z,2.60
2022-11-01T06:49:29.649Z,2.50
2022-11-01T06:51:56.863Z,2.35
2022-11-01T06:54:24.513Z,2.72
2022-11-01T06:56:51.816Z,2.70
2022-11-01T06:59:18.929Z,2.28
2022-11-01T07:01:46.306Z,1.95
2022-11-01T07:04:13.737Z,2.25
2022-11-01T07:06:41.204Z,2.63
2022-11-01T07:09:08.503Z,2.42
2022-11-01T07:11:35.641Z,2.50
2022-11-01T07:14:03.500Z,2.45
2022-11-01T07:16:31.567Z,2.35
2022-11-01T07:18:59.072Z,2.55
2022-11-01T07:21:26.608Z,2.83
2022-11-01T07:23:54.561Z,2.53
2022-11-01T07:26:22.208Z,2.55
2022-11-01T07:28:49.334Z,2.35
2022-11-01T07:31:16.353Z,2.45
2022-11-01T07:33:43.555Z,2.22
2022-11-01T07:36:11.035Z,2.10
2022-11-01T07:38:38.679Z,1.90
2022-11-01T07:41:06.381Z,2.20
2022-11-01T07:43:36.174Z,1.60
2022-11-01T07:46:07.536Z,1.85
2022-11-01T07:48:37.108Z,1.80
2022-11-01T07:51:06.276Z,2.03
2022-11-01T07:53:34.467Z,1.83
2022-11-01T07:56:02.531Z,1.70
2022-11-01T07:58:30.235Z,1.98
2022-11-01T08:00:57.795Z,1.30
2022-11-01T08:03:25.115Z,1.80
2022-11-01T08:05:52.519Z,1.60
2022-11-01T08:08:19.905Z,1.30
2022-11-01T08:10:47.141Z,1.65
2022-11-01T08:13:23.195Z,1.20
2022-11-01T08:15:51.977Z,1.60
2022-11-01T08:18:22.704Z,1.10
2022-11-01T08:20:50.718Z,1.15
2022-11-01T08:23:18.201Z,1.20
2022-11-01T08:25:46.207Z,1.40
2022-11-01T08:28:18.812Z,1.27
2022-11-01T08:30:48.288Z,1.30
2022-11-01T08:33:15.827Z,1.23
2022-11-01T08:35:49.863Z,1.38
2022-11-01T08:38:17.779Z,1.42
2022-11-01T08:40:45.002Z,1.65
2022-11-01T08:43:12.189Z,1.80
2022-11-01T08:45:39.352Z,1.63
2022-11-01T08:48:06.980Z,1.70
2022-11-01T08:50:35.400Z,1.60
2022-11-01T08:53:11.270Z,1.75
2022-11-01T08:55:40.239Z,1.60
2022-11-01T08:58:08.483Z,1.95
2022-11-01T09:00:36.233Z,1.85
2022-11-01T09:03:03.794Z,1.75
2022-11-01T09:05:31.788Z,1.58
2022-11-01T09:08:00.724Z,1.48
2022-11-01T09:13:08.484Z,1.73
2022-11-01T09:15:35.667Z,1.60
2022-11-01T09:18:07.436Z,1.50
2022-11-01T09:20:34.819Z,1.73
2022-11-01T09:23:02.543Z,1.60
2022-11-01T09:25:29.890Z,1.45
2022-11-01T09:27:58.194Z,1.80
2022-11-01T09:30:26.460Z,1.20
2022-11-01T09:32:53.645Z,1.35
2022-11-01T09:35:22.914Z,1.40
2022-11-01T09:37:56.961Z,1.77
2022-11-01T09:40:24.518Z,1.60
2022-11-01T09:42:56.691Z,1.15
2022-11-01T09:45:30.996Z,1.30
2022-11-01T09:47:59.931Z,1.50
2022-11-01T09:50:37.875Z,1.65
2022-11-01T09:53:09.928Z,1.60
2022-11-01T09:56:10.431Z,1.60
2022-11-01T09:59:02.633Z,1.17
2022-11-01T10:01:42.524Z,1.90
2022-11-01T10:04:20.220Z,1.48
2022-11-01T10:06:55.606Z,1.38
2022-11-01T10:09:29.631Z,1.67
2022-11-01T10:12:00.006Z,1.48
2022-11-01T10:14:48.111Z,1.48
2022-11-01T10:17:17.842Z,1.08
2022-11-01T10:19:50.526Z,1.38
2022-11-01T10:22:30.389Z,1.52
2022-11-01T10:25:06.796Z,1.23
2022-11-01T10:27:46.258Z,1.50
2022-11-01T10:30:18.384Z,1.50
2022-11-01T10:33:17.269Z,1.50
2022-11-01T10:35:52.179Z,1.13
2022-11-01T10:38:59.187Z,1.52
2022-11-01T10:41:27.711Z,1.60
2022-11-01T10:43:58.608Z,1.33
2022-11-01T10:46:34.181Z,1.58
2022-11-01T10:49:05.846Z,1.17
2022-11-01T10:51:35.023Z,1.45
2022-11-01T10:54:05.694Z,1.38
2022-11-01T10:56:42.064Z,1.20
2022-11-01T10:59:42.398Z,1.30
2022-11-01T11:02:26.129Z,1.00
2022-11-01T11:04:53.419Z,1.35
2022-11-01T11:07:24.250Z,1.60
2022-11-01T11:09:51.976Z,1.23
2022-11-01T11:12:21.611Z,1.50
2022-11-01T11:14:53.560Z,1.30
2022-11-01T11:17:29.653Z,1.30
2022-11-01T11:20:06.192Z,1.25
2022-11-01T11:22:40.098Z,1.60
2022-11-01T11:25:16.653Z,1.20
2022-11-01T11:27:47.922Z,1.20
2022-11-01T11:30:30.400Z,1.20
2022-11-01T11:32:59.235Z,1.50
2022-11-01T11:35:28.794Z,1.42
2022-11-01T11:38:01.238Z,1.50
2022-11-01T11:40:42.424Z,1.38
2022-11-01T11:43:31.076Z,1.60
2022-11-01T11:46:16.029Z,1.60
2022-11-01T11:48:51.122Z,1.58
2022-11-01T11:51:20.686Z,1.40
2022-11-01T11:54:21.026Z,1.58
2022-11-01T11:57:08.971Z,1.10
2022-11-01T11:59:36.514Z,1.42
2022-11-01T12:02:08.038Z,1.15
2022-11-01T12:04:47.979Z,1.60
2022-11-01T12:07:49.096Z,1.40
2022-11-01T12:10:40.666Z,1.23
2022-11-01T12:13:36.201Z,1.60
2022-11-01T12:16:16.956Z,1.27
2022-11-01T12:19:03.922Z,1.50
2022-11-01T12:21:40.278Z,1.30
2022-11-01T12:24:19.031Z,1.33
2022-11-01T12:26:48.834Z,1.75
2022-11-01T12:29:37.698Z,1.50
2022-11-01T12:32:15.178Z,1.40
2022-11-01T12:34:45.592Z,1.70
2022-11-01T12:37:34.507Z,1.60
2022-11-01T12:40:21.400Z,1.52
2022-11-01T12:42:52.226Z,1.55
2022-11-01T12:45:22.004Z,1.45
2022-11-01T12:47:54.948Z,1.50
2022-11-01T12:50:35.133Z,1.65
2022-11-01T12:53:12.684Z,1.55
2022-11-01T12:55:42.479Z,1.27
2022-11-01T12:58:16.549Z,1.63
2022-11-01T13:03:35.114Z,1.67
2022-11-01T13:06:32.637Z,1.52
2022-11-01T13:09:03.390Z,1.35
2022-11-01T13:11:54.828Z,1.55
2022-11-01T13:14:27.768Z,1.42
2022-11-01T13:17:19.447Z,2.00
2022-11-01T13:19:46.550Z,1.50
2022-11-01T13:22:26.409Z,1.50
2022-11-01T13:25:15.638Z,1.65
2022-11-01T13:27:57.889Z,1.42
2022-11-01T13:30:25.074Z,1.98
2022-11-01T13:33:13.565Z,1.45
2022-11-01T13:35:57.081Z,1.48
2022-11-01T13:38:54.294Z,1.15
2022-11-01T13:42:02.692Z,1.58
2022-11-01T13:44:34.909Z,1.85
2022-11-01T13:47:32.904Z,1.98
2022-11-01T13:50:35.680Z,1.70
2022-11-01T13:53:14.816Z,1.98
2022-11-01T13:56:03.072Z,1.42
2022-11-01T13:58:32.915Z,1.58
2022-11-01T14:01:36.735Z,1.20
2022-11-01T14:04:41.400Z,1.42
2022-11-01T14:07:11.567Z,1.50
2022-11-01T14:09:55.192Z,1.48
2022-11-01T14:12:36.487Z,1.30
2022-11-01T14:15:11.025Z,1.58
2022-11-01T14:17:51.551Z,1.70
2022-11-01T14:20:31.820Z,1.38
2022-11-01T14:23:19.530Z,1.23
2022-11-01T14:25:46.956Z,1.52
2022-11-01T14:28:17.027Z,1.83
2022-11-01T14:30:47.679Z,1.48
2022-11-01T14:33:19.031Z,1.40
2022-11-01T14:35:54.014Z,1.60
2022-11-01T14:38:31.929Z,1.65
2022-11-01T14:41:00.357Z,1.63
2022-11-01T14:43:31.093Z,2.15
2022-11-01T14:46:17.207Z,1.50
2022-11-01T14:48:57.794Z,1.15
2022-11-01T14:52:08.103Z,1.90
2022-11-01T14:54:53.438Z,1.70
2022-11-01T14:57:29.292Z,1.45
2022-11-01T14:59:58.303Z,1.80
2022-11-01T15:02:27.605Z,1.20
2022-11-01T15:04:59.983Z,1.30
2022-11-01T15:07:31.340Z,1.50
2022-11-01T15:10:13.426Z,1.58
2022-11-01T15:12:47.519Z,1.80
2022-11-01T15:15:22.291Z,1.83
2022-11-01T15:17:58.098Z,1.65
2022-11-01T15:20:29.340Z,2.42
2022-11-01T15:22:59.827Z,2.00
2022-11-01T15:25:27.509Z,1.60
2022-11-01T15:27:56.552Z,1.40
2022-11-01T15:30:30.624Z,1.38
2022-11-01T15:33:21.482Z,1.50
2022-11-01T15:35:59.528Z,1.90
2022-11-01T15:38:28.340Z,1.65
2022-11-01T15:40:55.834Z,1.40
2022-11-01T15:43:27.528Z,1.73
2022-11-01T15:46:00.389Z,1.60
2022-11-01T15:48:33.687Z,2.03
2022-11-01T15:51:05.142Z,1.77
2022-11-01T15:53:35.376Z,1.60
2022-11-01T15:56:20.818Z,1.70
2022-11-01T15:58:53.812Z,1.90
2022-11-01T16:01:24.826Z,2.17
2022-11-01T16:04:06.353Z,1.98
2022-11-01T16:06:42.376Z,2.08
2022-11-01T16:09:37.612Z,1.63
2022-11-01T16:12:14.196Z,1.85
2022-11-01T16:14:41.941Z,1.95
2022-11-01T16:17:35.319Z,2.05
2022-11-01T16:20:05.237Z,1.45
2022-11-01T16:22:36.939Z,1.88
2022-11-01T16:25:12.717Z,1.80
2022-11-01T16:27:54.995Z,2.17
2022-11-01T16:30:37.323Z,1.75
2022-11-01T16:33:37.849Z,2.03
2022-11-01T16:36:31.063Z,2.67
2022-11-01T16:38:59.412Z,2.13
2022-11-01T16:41:39.625Z,1.90
2022-11-01T16:44:18.631Z,3.50
2022-11-01T16:46:45.999Z,1.88
2022-11-01T16:49:25.323Z,2.20
2022-11-01T16:51:56.494Z,2.20
2022-11-01T16:54:25.257Z,2.50
2022-11-01T16:56:55.012Z,2.30
2022-11-01T16:59:41.743Z,2.20
2022-11-01T17:02:16.922Z,2.17
2022-11-01T17:04:46.156Z,2.45
2022-11-01T17:07:13.647Z,1.85
2022-11-01T17:09:41.008Z,2.40
2022-11-01T17:12:09.928Z,2.38
2022-11-01T17:14:38.339Z,2.35
2022-11-01T17:17:11.342Z,2.22
2022-11-01T17:19:41.754Z,1.95
2022-11-01T17:22:36.830Z,2.25
2022-11-01T17:25:05.527Z,2.55
2022-11-01T17:27:33.151Z,2.55
2022-11-01T17:30:00.483Z,2.25
2022-11-01T17:32:28.079Z,1.92
2022-11-01T17:34:55.247Z,2.30
2022-11-01T17:37:23.233Z,2.58
2022-11-01T17:39:50.452Z,2.28
2022-11-01T17:42:17.717Z,1.83
2022-11-01T17:44:49.204Z,1.77
2022-11-01T17:47:18.308Z,2.05
2022-11-01T17:49:47.794Z,3.08
2022-11-01T17:52:15.185Z,2.38
2022-11-01T17:54:42.448Z,5.63
2022-11-01T17:57:10.149Z,4.93
2022-11-01T17:59:38.111Z,2.17
2022-11-01T18:02:06.084Z,2.63
2022-11-01T18:04:36.793Z,2.03
2022-11-01T18:07:05.092Z,2.53
2022-11-01T18:09:36.625Z,2.25
2022-11-01T18:12:26.503Z,2.33
2022-11-01T18:15:08.033Z,2.50
2022-11-01T18:18:11.198Z,2.35
2022-11-01T18:21:10.195Z,2.47
2022-11-01T18:23:39.206Z,2.53
2022-11-01T18:26:15.840Z,2.20
2022-11-01T18:28:47.393Z,1.77
2022-11-01T18:31:35.012Z,2.58
2022-11-01T18:34:30.680Z,2.50
2022-11-01T18:37:26.762Z,2.47
2022-11-01T18:40:10.488Z,2.35
2022-11-01T18:42:44.643Z,2.73
2022-11-01T18:45:27.081Z,2.45
2022-11-01T18:48:06.353Z,2.58
2022-11-01T18:50:34.421Z,2.25
2022-11-01T18:53:18.973Z,2.20
2022-11-01T18:58:29.144Z,2.33
2022-11-01T19:01:43.290Z,2.25
2022-11-01T19:04:29.791Z,2.70
2022-11-01T19:07:20.742Z,2.97
2022-11-01T19:09:56.950Z,3.30
2022-11-01T19:12:31.298Z,2.63
2022-11-01T19:15:03.273Z,2.83
2022-11-01T19:17:37.458Z,3.03
2022-11-01T19:20:34.077Z,3.00
2022-11-01T19:23:11.748Z,2.83
2022-11-01T19:25:39.004Z,10.55
2022-11-01T19:28:20.074Z,3.90
2022-11-01T19:30:51.613Z,2.58
2022-11-01T19:33:33.359Z,6.45
2022-11-01T19:36:04.900Z,5.68
2022-11-01T19:38:32.069Z,8.40
2022-11-01T19:40:59.841Z,7.72
2022-11-01T19:43:28.341Z,11.77
2022-11-01T19:45:57.995Z,15.55
2022-11-01T19:48:30.938Z,5.13
2022-11-01T19:50:59.456Z,3.13
2022-11-01T19:53:28.952Z,3.30
2022-11-01T19:55:59.289Z,2.63
2022-11-01T19:58:37.205Z,5.72
2022-11-01T20:01:10.934Z,2.50
2022-11-01T20:03:52.531Z,5.68
2022-11-01T20:06:48.779Z,6.07
2022-11-01T20:09:27.893Z,11.13
2022-11-01T20:11:56.221Z,2.70
2022-11-01T20:14:23.518Z,2.90
2022-11-01T20:16:50.710Z,2.75
2022-11-01T20:19:18.234Z,2.40
2022-11-01T20:21:45.665Z,2.90
2022-11-01T20:24:14.315Z,2.15
2022-11-01T20:26:41.751Z,2.53
2022-11-01T20:29:09.355Z,2.10
2022-11-01T20:31:37.327Z,2.75
2022-11-01T20:34:04.575Z,2.60
2022-11-01T20:36:31.765Z,2.78
2022-11-01T20:38:59.926Z,2.20
2022-11-01T20:41:27.460Z,2.15
2022-11-01T20:43:54.831Z,2.67
2022-11-01T20:46:21.980Z,2.63
2022-11-01T20:48:49.914Z,2.38
2022-11-01T20:51:17.304Z,2.40
2022-11-01T20:53:47.146Z,2.60
2022-11-01T20:56:14.710Z,2.45
2022-11-01T20:58:45.002Z,3.20
2022-11-01T21:01:16.850Z,2.55
2022-11-01T21:03:44.739Z,2.25
2022-11-01T21:06:17.991Z,2.33
2022-11-01T21:08:49.543Z,2.70
2022-11-01T21:11:46.284Z,2.15
2022-11-01T21:14:19.036Z,2.20
2022-11-01T21:16:48.332Z,1.98
2022-11-01T21:19:23.807Z,2.28
2022-11-01T21:21:57.128Z,2.33
2022-11-01T21:24:34.503Z,2.60
2022-11-01T21:27:13.345Z,1.98
2022-11-01T21:29:49.835Z,2.97
2022-11-01T21:32:42.555Z,2.17
2022-11-01T21:35:21.480Z,2.88
2022-11-01T21:37:53.004Z,2.28
2022-11-01T21:40:28.715Z,2.75
2022-11-01T21:42:57.694Z,2.22
2022-11-01T21:45:32.632Z,2.38
2022-11-01T21:48:03.350Z,2.45
2022-11-01T21:50:30.631Z,2.20
2022-11-01T21:52:58.196Z,2.67
2022-11-01T21:55:29.626Z,2.42
2022-11-01T21:57:56.667Z,2.00
2022-11-01T22:00:23.764Z,1.95
2022-11-01T22:02:51.113Z,2.67
2022-11-01T22:05:18.285Z,2.28
2022-11-01T22:07:45.385Z,2.88
2022-11-01T22:10:12.504Z,2.20
2022-11-01T22:12:39.523Z,1.80
2022-11-01T22:15:08.478Z,2.70
2022-11-01T22:17:35.777Z,2.65
2022-11-01T22:20:03.138Z,2.90
2022-11-01T22:22:30.351Z,2.25
2022-11-01T22:24:57.526Z,2.60
2022-11-01T22:27:24.692Z,2.67
2022-11-01T22:29:52.148Z,2.38
2022-11-01T22:32:19.336Z,2.38
2022-11-01T22:34:46.737Z,2.25
2022-11-01T22:37:13.915Z,3.05
2022-11-01T22:39:41.701Z,2.92
2022-11-01T22:42:15.645Z,2.20
2022-11-01T22:44:45.735Z,2.95
2022-11-01T22:47:26.417Z,2.60
2022-11-01T22:49:56.057Z,2.30
2022-11-01T22:52:29.771Z,2.45
2022-11-01T22:55:11.956Z,2.38
2022-11-01T22:58:01.122Z,2.08
2022-11-01T23:00:33.800Z,2.75
2022-11-01T23:03:15.856Z,2.28
2022-11-01T23:05:43.559Z,2.00
2022-11-01T23:08:34.179Z,2.35
2022-11-01T23:11:02.016Z,2.10
2022-11-01T23:13:49.069Z,1.90
2022-11-01T23:16:27.779Z,2.50
2022-11-01T23:18:59.997Z,2.30
2022-11-01T23:21:28.400Z,2.50
2022-11-01T23:23:55.862Z,1.90
2022-11-01T23:26:23.862Z,2.53
2022-11-01T23:28:54.958Z,2.13
2022-11-01T23:31:23.715Z,2.28
2022-11-01T23:33:51.697Z,2.40
2022-11-01T23:36:39.063Z,2.13
2022-11-01T23:39:14.286Z,2.17
2022-11-01T23:41:41.485Z,1.85
2022-11-01T23:44:34.992Z,2.20
2022-11-01T23:47:34.014Z,2.70
2022-11-01T23:50:10.893Z,1.88
2022-11-01T23:52:46.232Z,1.95
2022-11-01T23:55:41.284Z,1.85
2022-11-01T23:58:23.667Z,2.00
